Bei Facebook empfehlenBei Twitter postenGoogle plusPinterest

Das Wetter im Erzgebirge am 17.06.2016

Wetter und Klima am 17.06.2016 Holzhau im Erzgebirge (630m ü.NN)
Letzte gemessene Temperatur und Uhrzeit der Messung23:45:00 Uhr9.90 °C
Temperatur (Maximum / Höchstwert) und Uhrzeit der Messung19:00:00 Uhr15.90 °C
Temperatur (Minimum / Tiefstwert) und Uhrzeit der Messung23:15:009.30 °C
Errechneter Absolutwert der Temperaturschwankungen zwischen Tmin und Tmax des Tages6.60 K
Errechnete Tagesmitteltemperatur12.66979 °C
Gesamt - Niederschlag des Tages (in flüssiger Form)15.54 Liter / m²
Luftdruck (Maximum / Höchstwert) und Zeitpunkt der Messung23:45:00 Uhr1010.20 hPa
Luftdruck (Minimum / Tiefstwert) und Zeitpunkt der Messung04:15:00 Uhr997.20 hPa
Errechneter Absolutwert der Luftdruckschwankungen des Tages13.00 hPa
Höchste gemessene Windgeschwindigkeit und Uhrzeit der Messung23:45:00 Uhr0.00 km/h
Errechnete Windhäufigkeit in Relation zu den Messwerten des Tages0.00000 %
Niedrigste Windkühle (Windchill) und Zeitpunkt der Messung23:15:00 Uhr9.30 °C
Taupunkt (Maximum / Höchstwert) und Uhrzeit der Messung14:15:00 Uhr13.90 °C
Taupunkt (Minimum / Tiefstwert) und Uhrzeit der Messung23:15:007.60 °C
Anzahl der automatisch eingelesenen Messwerte 96

Detaillierte Wetter- und Klima- Messwerte für den 17.06.2016 in Holzhau im Erzgebirge (630m ü.NN)
ZeitTemperaturLuftdruckRel. LuftfeuchteWindWindrichtungWindchillTaupunktNiederschlag l/m²
23:45:009.90 °C1010.20 hPa90.00 %8.30 °C15.54
23:30:009.50 °C1010.10 hPa90.00 %7.90 °C15.54
23:15:009.30 °C1009.80 hPa89.00 %7.60 °C15.54
23:00:009.60 °C1009.80 hPa89.00 %7.90 °C15.54
22:45:009.90 °C1009.40 hPa88.00 %8.00 °C15.54
22:30:0010.10 °C1009.40 hPa88.00 %8.20 °C15.54
22:15:0010.40 °C1009.20 hPa87.00 %8.30 °C15.54
22:00:0010.90 °C1009.10 hPa87.00 %8.80 °C15.54
21:45:0011.30 °C1008.80 hPa86.00 %9.00 °C15.54
21:30:0011.80 °C1008.60 hPa85.00 %9.40 °C15.54
21:15:0012.10 °C1008.10 hPa84.00 %9.50 °C15.54
21:00:0012.50 °C1008.10 hPa83.00 %9.70 °C15.54
20:45:0013.10 °C1008.00 hPa82.00 %10.10 °C15.54
20:30:0013.70 °C1007.80 hPa81.00 %10.50 °C15.54
20:15:0013.90 °C1007.70 hPa80.00 %10.50 °C15.54
20:00:0014.40 °C1007.40 hPa79.00 %10.80 °C15.54
19:45:0014.90 °C1007.20 hPa79.00 %11.30 °C15.54
19:30:0015.30 °C1007.10 hPa80.00 %11.90 °C15.54
19:15:0015.40 °C1007.00 hPa80.00 %12.00 °C15.54
19:00:0015.90 °C1007.00 hPa80.00 %12.50 °C15.54
18:45:0015.80 °C1007.00 hPa80.00 %12.40 °C15.54
18:30:0015.90 °C1006.90 hPa80.00 %12.50 °C15.54
18:15:0015.40 °C1006.70 hPa81.00 %12.20 °C15.54
18:00:0015.10 °C1006.70 hPa81.00 %11.90 °C15.54
17:45:0015.80 °C1006.20 hPa81.00 %12.50 °C15.54
17:30:0015.90 °C1006.10 hPa83.00 %13.00 °C15.54
17:15:0015.80 °C1006.00 hPa83.00 %12.90 °C15.54
17:00:0015.10 °C1005.80 hPa84.00 %12.40 °C15.54
16:45:0015.50 °C1005.40 hPa84.00 %12.80 °C15.54
16:30:0015.60 °C1005.40 hPa86.00 %13.30 °C15.54
16:15:0015.30 °C1005.20 hPa88.00 %13.30 °C15.54
16:00:0014.90 °C1005.00 hPa90.00 %13.30 °C15.54
15:45:0014.30 °C1004.90 hPa90.00 %12.70 °C15.54
15:30:0013.90 °C1004.90 hPa91.00 %12.50 °C15.54
15:15:0013.60 °C1004.60 hPa92.00 %12.30 °C15.54
15:00:0013.40 °C1004.50 hPa92.00 %12.10 °C15.54
14:45:0013.80 °C1004.30 hPa92.00 %12.50 °C15.54
14:30:0014.40 °C1004.20 hPa93.00 %13.30 °C15.54
14:15:0014.90 °C1003.70 hPa94.00 %13.90 °C15.54
14:00:0014.30 °C1003.40 hPa95.00 %13.50 °C15.54
13:45:0013.20 °C1003.30 hPa95.00 %12.40 °C15.54
13:30:0013.30 °C1003.30 hPa95.00 %12.50 °C15.54
13:15:0012.90 °C1003.00 hPa95.00 %12.10 °C15.54
13:00:0012.60 °C1002.70 hPa96.00 %12.00 °C15.54
12:45:0012.30 °C1002.50 hPa96.00 %11.70 °C15.54
12:30:0012.10 °C1002.30 hPa96.00 %11.50 °C15.54
12:15:0011.80 °C1001.90 hPa96.00 %11.20 °C15.54
12:00:0011.80 °C1001.60 hPa96.00 %11.20 °C15.54
11:45:0011.50 °C1001.40 hPa96.00 %10.90 °C15.54
11:30:0011.60 °C1001.00 hPa96.00 %11.00 °C14.51
11:15:0011.30 °C1000.90 hPa96.00 %10.70 °C14.51
11:00:0011.30 °C1000.60 hPa96.00 %10.70 °C14.51
10:45:0011.30 °C1000.40 hPa96.00 %10.70 °C13.47
10:30:0011.30 °C1000.00 hPa96.00 %10.70 °C13.47
10:15:0011.50 °C999.80 hPa96.00 %10.90 °C12.95
10:00:0011.30 °C999.70 hPa96.00 %10.70 °C12.95
09:45:0011.30 °C999.60 hPa96.00 %10.70 °C12.44
09:30:0011.40 °C999.20 hPa96.00 %10.80 °C12.44
09:15:0011.10 °C999.10 hPa95.00 %10.30 °C11.92
09:00:0011.00 °C998.90 hPa95.00 %10.20 °C11.92
08:45:0011.20 °C998.80 hPa95.00 %10.40 °C11.92
08:30:0011.40 °C998.50 hPa96.00 %10.80 °C11.40
08:15:0011.40 °C998.50 hPa96.00 %10.80 °C10.88
08:00:0011.20 °C998.40 hPa95.00 %10.40 °C9.85
07:45:0011.20 °C997.90 hPa95.00 %10.40 °C9.33
07:30:0011.20 °C997.80 hPa95.00 %10.40 °C9.33
07:15:0011.10 °C997.80 hPa95.00 %10.30 °C9.33
07:00:0011.10 °C998.00 hPa95.00 %10.30 °C9.33
06:45:0011.30 °C997.90 hPa95.00 %10.50 °C8.81
06:30:0011.40 °C997.70 hPa95.00 %10.60 °C8.29
06:15:0011.50 °C997.40 hPa95.00 %10.70 °C7.26
06:00:0011.50 °C997.60 hPa95.00 %10.70 °C5.70
05:45:0011.60 °C997.40 hPa95.00 %10.80 °C5.18
05:30:0011.60 °C997.30 hPa95.00 %10.80 °C4.67
05:15:0011.80 °C997.30 hPa95.00 %11.00 °C3.63
05:00:0011.80 °C997.30 hPa95.00 %11.00 °C3.11
04:45:0011.90 °C997.30 hPa94.00 %11.00 °C2.59
04:30:0012.30 °C997.30 hPa94.00 %11.40 °C2.59
04:15:0012.60 °C997.20 hPa95.00 %11.80 °C2.59
04:00:0012.60 °C997.60 hPa95.00 %11.80 °C2.59
03:45:0012.80 °C997.80 hPa95.00 %12.00 °C2.08
03:30:0012.80 °C997.40 hPa94.00 %11.90 °C1.56
03:15:0012.80 °C998.00 hPa94.00 %11.90 °C1.04
03:00:0012.90 °C997.70 hPa94.00 %12.00 °C1.04
02:45:0012.90 °C997.60 hPa94.00 %12.00 °C1.04
02:30:0012.90 °C997.70 hPa94.00 %12.00 °C1.04
02:15:0012.90 °C998.10 hPa94.00 %12.00 °C1.04
02:00:0012.90 °C998.20 hPa94.00 %12.00 °C1.04
01:45:0012.90 °C998.30 hPa94.00 %12.00 °C1.04
01:30:0012.90 °C998.50 hPa94.00 %12.00 °C1.04
01:15:0012.90 °C998.90 hPa94.00 %12.00 °C1.04
01:00:0012.90 °C999.00 hPa93.00 %11.80 °C1.04
00:45:0012.90 °C999.10 hPa93.00 %11.80 °C0.52
00:30:0012.90 °C999.70 hPa93.00 %11.80 °C 
00:15:0012.90 °C999.50 hPa93.00 %11.80 °C 
00:00:0012.90 °C999.80 hPa93.00 %11.80 °C 

Permanenter Link zu dieser Seite: Wetter im Erzgebirge am 17.06.2016
Performance-Info: Die Erstellung der Seite / Statistik(en) / Tabelle(n) erforderte 5 Datenbankserver-Abfrage(n) und dauerte 125 Millisekunden. (Dieser Messwert ist von der Gesamt-Auslastung des Servers abhängig.)
Erzgebirge - Wetter | Erzgebirge - Wetter (Mobilgeräte) | Komplette Klimadatenbank